createdAt,value
2017-03-03T00:00:25.607Z,1000.4
2017-03-03T00:01:25.641Z,1000.44
2017-03-03T00:02:25.673Z,1000.47
2017-03-03T00:03:25.707Z,1000.44
2017-03-03T00:04:25.743Z,1000.41
2017-03-03T00:05:25.774Z,1000.44
2017-03-03T00:06:25.809Z,1000.43
2017-03-03T00:07:25.841Z,1000.45
2017-03-03T00:08:25.875Z,1000.48
2017-03-03T00:09:25.908Z,1000.52
2017-03-03T00:10:25.941Z,1000.51
2017-03-03T00:11:25.975Z,1000.54
2017-03-03T00:12:26.007Z,1000.55
2017-03-03T00:13:26.052Z,1000.54
2017-03-03T00:14:26.073Z,1000.58
2017-03-03T00:15:26.108Z,1000.59
2017-03-03T00:16:26.142Z,1000.54
2017-03-03T00:17:26.175Z,1000.53
2017-03-03T00:18:26.206Z,1000.54
2017-03-03T00:19:26.242Z,1000.52
2017-03-03T00:20:26.275Z,1000.52
2017-03-03T00:21:26.308Z,1000.53
2017-03-03T00:22:26.341Z,1000.57
2017-03-03T00:23:26.375Z,1000.56
2017-03-03T00:24:26.411Z,1000.55
2017-03-03T00:25:26.441Z,1000.59
2017-03-03T00:26:26.473Z,1000.59
2017-03-03T00:27:26.508Z,1000.59
2017-03-03T00:28:26.543Z,1000.61
2017-03-03T00:29:26.575Z,1000.59
2017-03-03T00:30:26.609Z,1000.57
2017-03-03T00:31:26.640Z,1000.61
2017-03-03T00:32:26.672Z,1000.6
2017-03-03T00:33:26.705Z,1000.59
2017-03-03T00:34:26.740Z,1000.6
2017-03-03T00:35:26.773Z,1000.6
2017-03-03T00:36:26.806Z,1000.67
2017-03-03T00:37:26.842Z,1000.7
2017-03-03T00:38:26.873Z,1000.68
2017-03-03T00:39:26.907Z,1000.75
2017-03-03T00:40:26.938Z,1000.72
2017-03-03T00:41:26.972Z,1000.77
2017-03-03T00:42:27.006Z,1000.72
2017-03-03T00:43:27.042Z,1000.73
2017-03-03T00:44:27.070Z,1000.72
2017-03-03T00:45:27.105Z,1000.74
2017-03-03T00:46:27.138Z,1000.72
2017-03-03T00:47:27.193Z,1000.7
2017-03-03T00:48:27.205Z,1000.72
2017-03-03T00:49:27.238Z,1000.7
2017-03-03T00:50:27.271Z,1000.67
2017-03-03T00:51:27.303Z,1000.73
2017-03-03T00:52:27.336Z,1000.66
2017-03-03T00:53:27.372Z,1000.67
2017-03-03T00:54:27.402Z,1000.71
2017-03-03T00:55:27.436Z,1000.7
2017-03-03T00:56:27.469Z,1000.71
2017-03-03T00:57:27.504Z,1000.73
2017-03-03T00:58:27.534Z,1000.74
2017-03-03T00:59:27.569Z,1000.71
2017-03-03T01:00:27.602Z,1000.73
2017-03-03T01:01:27.635Z,1000.7
2017-03-03T01:02:27.668Z,1000.66
2017-03-03T01:03:27.702Z,1000.72
2017-03-03T01:04:27.734Z,1000.71
2017-03-03T01:05:27.767Z,1000.62
2017-03-03T01:06:27.799Z,1000.67
2017-03-03T01:07:27.834Z,1000.66
2017-03-03T01:08:27.866Z,1000.66
2017-03-03T01:09:27.897Z,1000.66
2017-03-03T01:10:27.933Z,1000.69
2017-03-03T01:11:27.965Z,1000.67
2017-03-03T01:12:27.998Z,1000.68
2017-03-03T01:13:28.030Z,1000.68
2017-03-03T01:14:28.064Z,1000.63
2017-03-03T01:15:28.098Z,1000.65
2017-03-03T01:16:28.131Z,1000.65
2017-03-03T01:17:28.162Z,1000.61
2017-03-03T01:18:28.197Z,1000.63
2017-03-03T01:19:28.228Z,1000.67
2017-03-03T01:20:28.261Z,1000.71
2017-03-03T01:21:28.295Z,1000.7
2017-03-03T01:22:28.327Z,1000.73
2017-03-03T01:23:28.361Z,1000.74
2017-03-03T01:24:28.393Z,1000.73
2017-03-03T01:25:28.426Z,1000.72
2017-03-03T01:26:28.459Z,1000.72
2017-03-03T01:27:28.491Z,1000.66
2017-03-03T01:28:28.525Z,1000.71
2017-03-03T01:29:28.558Z,1000.63
2017-03-03T01:30:28.591Z,1000.65
2017-03-03T01:31:28.623Z,1000.66
2017-03-03T01:32:28.657Z,1000.7
2017-03-03T01:33:28.690Z,1000.72
2017-03-03T01:34:28.722Z,1000.7
2017-03-03T01:35:28.754Z,1000.67
2017-03-03T01:36:28.789Z,1000.7
2017-03-03T01:37:28.820Z,1000.68
2017-03-03T01:38:28.853Z,1000.7
2017-03-03T01:39:28.885Z,1000.73
2017-03-03T01:40:28.919Z,1000.71
2017-03-03T01:41:28.952Z,1000.79
2017-03-03T01:42:28.984Z,1000.79
2017-03-03T01:43:29.017Z,1000.79
2017-03-03T01:44:29.049Z,1000.85
2017-03-03T01:45:29.083Z,1000.83
2017-03-03T01:46:29.114Z,1000.88
2017-03-03T01:47:29.148Z,1000.81
2017-03-03T01:48:29.181Z,1000.85
2017-03-03T01:49:29.212Z,1000.76
2017-03-03T01:50:29.245Z,1000.89
2017-03-03T01:51:29.278Z,1000.85
2017-03-03T01:52:29.312Z,1000.87
2017-03-03T01:53:29.344Z,1000.88
2017-03-03T01:54:29.378Z,1000.9
2017-03-03T01:55:29.410Z,1000.93
2017-03-03T01:56:29.442Z,1000.96
2017-03-03T01:57:29.475Z,1000.95
2017-03-03T01:58:29.507Z,1000.91
2017-03-03T01:59:29.541Z,1000.99
2017-03-03T02:00:29.572Z,1000.95
2017-03-03T02:01:42.350Z,1001.02
2017-03-03T02:02:29.647Z,1001.04
2017-03-03T02:03:29.680Z,1000.98
2017-03-03T02:04:29.712Z,1000.95
2017-03-03T02:05:29.744Z,1000.93
2017-03-03T02:06:29.779Z,1001.05
2017-03-03T02:07:29.813Z,1001.06
2017-03-03T02:08:29.842Z,1001.09
2017-03-03T02:09:29.877Z,1001.1
2017-03-03T02:10:29.911Z,1001.09
2017-03-03T02:11:29.942Z,1001.19
2017-03-03T02:12:29.973Z,1001.23
2017-03-03T02:13:30.008Z,1001.15
2017-03-03T02:14:30.040Z,1001.14
2017-03-03T02:15:30.070Z,1001.17
2017-03-03T02:16:30.105Z,1001.18
2017-03-03T02:17:30.138Z,1001.13
2017-03-03T02:18:30.168Z,1001.16
2017-03-03T02:19:30.202Z,1001.17
2017-03-03T02:20:30.235Z,1001.18
2017-03-03T02:21:30.267Z,1001.21
2017-03-03T02:22:30.298Z,1001.18
2017-03-03T02:23:30.334Z,1001.23
2017-03-03T02:24:30.367Z,1001.22
2017-03-03T02:25:30.397Z,1001.25
2017-03-03T02:26:30.431Z,1001.21
2017-03-03T02:27:30.464Z,1001.19
2017-03-03T02:28:30.495Z,1001.24
2017-03-03T02:29:30.531Z,1001.22
2017-03-03T02:30:30.563Z,1001.24
2017-03-03T02:31:30.593Z,1001.29
2017-03-03T02:32:30.628Z,1001.28
2017-03-03T02:33:30.659Z,1001.24
2017-03-03T02:34:30.692Z,1001.21
2017-03-03T02:35:30.725Z,1001.23
2017-03-03T02:36:30.758Z,1001.22
2017-03-03T02:37:30.789Z,1001.24
2017-03-03T02:38:30.822Z,1001.25
2017-03-03T02:39:30.889Z,1001.23
2017-03-03T02:40:30.888Z,1001.22
2017-03-03T02:41:30.918Z,1001.23
2017-03-03T02:42:30.953Z,1001.21
2017-03-03T02:43:30.987Z,1001.21
2017-03-03T02:44:31.015Z,1001.26
2017-03-03T02:45:31.048Z,1001.27
2017-03-03T02:46:31.081Z,1001.27
2017-03-03T02:47:31.114Z,1001.24
2017-03-03T02:48:31.147Z,1001.28
2017-03-03T02:49:31.181Z,1001.31
2017-03-03T02:50:31.214Z,1001.25
2017-03-03T02:51:31.244Z,1001.26
2017-03-03T02:52:31.278Z,1001.28
2017-03-03T02:53:31.311Z,1001.31
2017-03-03T02:54:31.343Z,1001.32
2017-03-03T02:55:31.375Z,1001.3
2017-03-03T02:56:31.407Z,1001.34
2017-03-03T02:57:31.441Z,1001.33
2017-03-03T02:58:31.472Z,1001.32
2017-03-03T02:59:31.509Z,1001.28
2017-03-03T03:00:31.538Z,1001.27
2017-03-03T03:01:31.571Z,1001.31
2017-03-03T03:02:31.601Z,1001.29
2017-03-03T03:03:31.636Z,1001.3
2017-03-03T03:04:31.668Z,1001.31
2017-03-03T03:05:31.699Z,1001.26
2017-03-03T03:06:31.733Z,1001.3
2017-03-03T03:07:31.765Z,1001.28
2017-03-03T03:08:31.798Z,1001.24
2017-03-03T03:09:31.829Z,1001.2
2017-03-03T03:10:31.862Z,1001.25
2017-03-03T03:11:31.896Z,1001.22
2017-03-03T03:12:31.929Z,1001.26
2017-03-03T03:13:31.961Z,1001.24
2017-03-03T03:14:31.993Z,1001.21
2017-03-03T03:15:32.025Z,1001.24
2017-03-03T03:16:32.061Z,1001.21
2017-03-03T03:17:32.092Z,1001.23
2017-03-03T03:18:32.122Z,1001.21
2017-03-03T03:19:32.157Z,1001.19
2017-03-03T03:20:32.190Z,1001.18
2017-03-03T03:21:32.223Z,1001.18
2017-03-03T03:22:32.257Z,1001.19
2017-03-03T03:23:32.287Z,1001.2
2017-03-03T03:24:32.322Z,1001.19
2017-03-03T03:25:32.351Z,1001.19
2017-03-03T03:26:32.386Z,1001.2
2017-03-03T03:27:32.421Z,1001.19
2017-03-03T03:28:32.450Z,1001.15
2017-03-03T03:29:32.484Z,1001.14
2017-03-03T03:30:32.516Z,1001.14
2017-03-03T03:31:32.549Z,1001.16
2017-03-03T03:32:32.582Z,1001.18
2017-03-03T03:33:32.613Z,1001.16
2017-03-03T03:34:32.648Z,1001.14
2017-03-03T03:35:32.680Z,1001.14
2017-03-03T03:36:32.713Z,1001.14
2017-03-03T03:37:32.746Z,1001.16
2017-03-03T03:38:32.778Z,1001.15
2017-03-03T03:39:32.811Z,1001.14
2017-03-03T03:40:32.843Z,1001.19
2017-03-03T03:41:32.877Z,1001.21
2017-03-03T03:42:32.909Z,1001.19
2017-03-03T03:43:32.942Z,1001.2
2017-03-03T03:44:32.972Z,1001.22
2017-03-03T03:45:33.008Z,1001.16
2017-03-03T03:46:33.038Z,1001.2
2017-03-03T03:47:33.071Z,1001.2
2017-03-03T03:48:33.106Z,1001.14
2017-03-03T03:49:33.145Z,1001.07
2017-03-03T03:50:33.169Z,1001.1
2017-03-03T03:51:33.204Z,1001.11
2017-03-03T03:52:33.238Z,1001.14
2017-03-03T03:53:33.266Z,1001.12
2017-03-03T03:54:33.300Z,1001.1
2017-03-03T03:55:33.333Z,1001.1
2017-03-03T03:56:33.368Z,1001.06
2017-03-03T03:57:33.398Z,1001.07
2017-03-03T03:58:33.451Z,1001.03
2017-03-03T03:59:33.464Z,1001
2017-03-03T04:00:33.499Z,1001.02
2017-03-03T04:01:33.531Z,1001
2017-03-03T04:02:33.564Z,1001.03
2017-03-03T04:03:33.594Z,1001.07
2017-03-03T04:04:33.627Z,1001.05
2017-03-03T04:05:33.661Z,1001
2017-03-03T04:06:33.694Z,1001
2017-03-03T04:07:33.724Z,1000.99
2017-03-03T04:08:33.756Z,1000.98
2017-03-03T04:09:33.791Z,1000.97
2017-03-03T04:10:33.821Z,1000.97
2017-03-03T04:11:33.855Z,1000.98
2017-03-03T04:12:33.889Z,1000.94
2017-03-03T04:13:33.922Z,1000.97
2017-03-03T04:14:33.954Z,1000.96
2017-03-03T04:15:33.984Z,1000.93
2017-03-03T04:16:34.019Z,1000.95
2017-03-03T04:17:34.053Z,1000.91
2017-03-03T04:18:34.082Z,1000.91
2017-03-03T04:19:34.114Z,1000.94
2017-03-03T04:20:34.149Z,1000.89
2017-03-03T04:21:34.181Z,1000.89
2017-03-03T04:22:34.218Z,1000.89
2017-03-03T04:23:34.245Z,1000.88
2017-03-03T04:24:34.276Z,1000.87
2017-03-03T04:25:34.309Z,1000.84
2017-03-03T04:26:34.343Z,1000.84
2017-03-03T04:27:34.376Z,1000.82
2017-03-03T04:28:34.406Z,1000.82
2017-03-03T04:29:34.441Z,1000.82
2017-03-03T04:30:34.470Z,1000.84
2017-03-03T04:31:34.503Z,1000.82
2017-03-03T04:32:34.537Z,1000.82
2017-03-03T04:33:34.568Z,1000.82
2017-03-03T04:34:34.600Z,1000.81
2017-03-03T04:35:34.633Z,1000.8
2017-03-03T04:36:34.667Z,1000.73
2017-03-03T04:37:34.703Z,1000.7
2017-03-03T04:38:34.731Z,1000.71
2017-03-03T04:39:34.765Z,1000.73
2017-03-03T04:40:34.798Z,1000.7
2017-03-03T04:41:34.829Z,1000.67
2017-03-03T04:42:34.859Z,1000.69
2017-03-03T04:43:34.895Z,1000.66
2017-03-03T04:44:34.927Z,1000.64
2017-03-03T04:45:34.960Z,1000.63
2017-03-03T04:46:34.992Z,1000.65
2017-03-03T04:47:35.025Z,1000.61
2017-03-03T04:48:35.054Z,1000.65
2017-03-03T04:49:35.089Z,1000.61
2017-03-03T04:50:35.119Z,1000.62
2017-03-03T04:51:35.153Z,1000.57
2017-03-03T04:52:35.183Z,1000.57
2017-03-03T04:53:35.217Z,1000.58
2017-03-03T04:54:35.251Z,1000.61
2017-03-03T04:55:35.282Z,1000.59
2017-03-03T04:56:35.315Z,1000.56
2017-03-03T04:57:35.346Z,1000.58
2017-03-03T04:58:35.378Z,1000.53
2017-03-03T04:59:35.411Z,1000.54
2017-03-03T05:00:35.454Z,1000.54
2017-03-03T05:01:35.478Z,1000.56
2017-03-03T05:02:35.508Z,1000.51
2017-03-03T05:03:35.540Z,1000.55
2017-03-03T05:04:35.574Z,1000.57
2017-03-03T05:05:35.605Z,1000.58
2017-03-03T05:06:35.638Z,1000.55
2017-03-03T05:07:35.670Z,1000.56
2017-03-03T05:08:35.704Z,1000.58
2017-03-03T05:09:35.735Z,1000.53
2017-03-03T05:10:35.766Z,1000.56
2017-03-03T05:11:35.800Z,1000.54
2017-03-03T05:12:35.830Z,1000.55
2017-03-03T05:13:35.865Z,1000.49
2017-03-03T05:14:35.896Z,1000.51
2017-03-03T05:15:35.927Z,1000.47
2017-03-03T05:16:35.962Z,1000.48
2017-03-03T05:17:35.994Z,1000.48
2017-03-03T05:18:36.024Z,1000.45
2017-03-03T05:19:36.057Z,1000.42
2017-03-03T05:20:36.091Z,1000.41
2017-03-03T05:21:36.122Z,1000.4
2017-03-03T05:22:36.153Z,1000.45
2017-03-03T05:23:36.185Z,1000.48
2017-03-03T05:24:36.218Z,1000.48
2017-03-03T05:25:36.248Z,1000.51
2017-03-03T05:26:36.281Z,1000.49
2017-03-03T05:27:36.316Z,1000.51
2017-03-03T05:28:36.348Z,1000.51
2017-03-03T05:29:36.377Z,1000.56
2017-03-03T05:30:36.411Z,1000.57
2017-03-03T05:31:36.442Z,1000.57
2017-03-03T05:32:36.476Z,1000.58
2017-03-03T05:33:36.509Z,1000.59
2017-03-03T05:34:36.538Z,1000.59
2017-03-03T05:35:36.571Z,1000.54
2017-03-03T05:36:36.603Z,1000.53
2017-03-03T05:37:36.635Z,1000.58
2017-03-03T05:38:36.669Z,1000.58
2017-03-03T05:39:36.701Z,1000.61
2017-03-03T05:40:36.733Z,1000.63
2017-03-03T05:41:36.764Z,1000.65
2017-03-03T05:42:36.795Z,1000.65
2017-03-03T05:43:36.828Z,1000.7
2017-03-03T05:44:36.859Z,1000.62
2017-03-03T05:45:36.893Z,1000.65
2017-03-03T05:46:36.929Z,1000.62
2017-03-03T05:47:36.957Z,1000.6
2017-03-03T05:48:36.990Z,1000.61
2017-03-03T05:49:37.020Z,1000.61
2017-03-03T05:50:37.053Z,1000.61
2017-03-03T05:51:37.084Z,1000.62
2017-03-03T05:52:37.116Z,1000.64
2017-03-03T05:53:37.147Z,1000.63
2017-03-03T05:54:37.181Z,1000.66
2017-03-03T05:55:37.212Z,1000.66
2017-03-03T05:56:37.243Z,1000.66
2017-03-03T05:57:37.276Z,1000.67
2017-03-03T05:58:37.308Z,1000.65
2017-03-03T05:59:37.787Z,1000.67
2017-03-03T06:00:37.374Z,1000.7
2017-03-03T06:01:37.414Z,1000.6
2017-03-03T06:02:37.435Z,1000.58
2017-03-03T06:03:37.914Z,1000.6
2017-03-03T06:04:37.501Z,1000.58
2017-03-03T06:05:37.534Z,1000.56
2017-03-03T06:06:37.563Z,1000.59
2017-03-03T06:07:37.599Z,1000.58
2017-03-03T06:08:37.629Z,1000.6
2017-03-03T06:09:38.101Z,1000.67
2017-03-03T06:10:37.695Z,1000.61
2017-03-03T06:11:37.726Z,1000.64
2017-03-03T06:12:37.758Z,1000.64
2017-03-03T06:13:37.791Z,1000.7
2017-03-03T06:14:37.823Z,1000.74
2017-03-03T06:15:37.855Z,1000.79
2017-03-03T06:16:37.886Z,1000.77
2017-03-03T06:17:37.918Z,1000.8
2017-03-03T06:18:37.953Z,1000.8
2017-03-03T06:19:37.984Z,1000.77
2017-03-03T06:20:38.017Z,1000.85
2017-03-03T06:21:38.050Z,1000.81
2017-03-03T06:22:38.083Z,1000.86
2017-03-03T06:23:38.115Z,1000.82
2017-03-03T06:24:38.146Z,1000.82
2017-03-03T06:25:38.177Z,1000.8
2017-03-03T06:26:38.211Z,1000.79
2017-03-03T06:27:38.245Z,1000.81
2017-03-03T06:28:38.278Z,1000.79
2017-03-03T06:29:38.311Z,1000.8
2017-03-03T06:30:38.342Z,1000.8
2017-03-03T06:31:38.375Z,1000.79
2017-03-03T06:32:38.406Z,1000.83
2017-03-03T06:33:38.441Z,1000.85
2017-03-03T06:34:38.474Z,1000.83
2017-03-03T06:35:38.508Z,1000.87
2017-03-03T06:36:38.543Z,1000.86
2017-03-03T06:37:38.571Z,1000.82
2017-03-03T06:38:38.605Z,1000.86
2017-03-03T06:39:38.638Z,1000.85
2017-03-03T06:40:38.670Z,1000.87
2017-03-03T06:41:38.703Z,1000.85
2017-03-03T06:42:38.738Z,1000.88
2017-03-03T06:43:38.770Z,1000.9
2017-03-03T06:44:38.804Z,1000.9
2017-03-03T06:45:38.836Z,1000.86
2017-03-03T06:46:38.870Z,1000.94
2017-03-03T06:47:38.904Z,1000.91
2017-03-03T06:48:38.935Z,1000.94
2017-03-03T06:49:38.969Z,1000.95
2017-03-03T06:50:39.002Z,1000.96
2017-03-03T06:51:39.036Z,1000.94
2017-03-03T06:52:39.079Z,1000.97
2017-03-03T06:53:39.102Z,1001
2017-03-03T06:54:39.139Z,1000.99
2017-03-03T06:55:39.171Z,1000.97
2017-03-03T06:56:39.204Z,1000.98
2017-03-03T06:57:39.240Z,1001.03
2017-03-03T06:58:39.271Z,1001.01
2017-03-03T06:59:39.306Z,1000.98
2017-03-03T07:00:39.343Z,1001.04
2017-03-03T07:01:39.374Z,1001.1
2017-03-03T07:02:39.409Z,1001.07
2017-03-03T07:03:39.442Z,1001.08
2017-03-03T07:04:39.477Z,1001.04
2017-03-03T07:05:39.509Z,1001.06
2017-03-03T07:06:39.545Z,1001
2017-03-03T07:07:39.582Z,1001
2017-03-03T07:08:39.880Z,1000.98
2017-03-03T07:09:39.647Z,1000.95
2017-03-03T07:10:39.684Z,1001.01
2017-03-03T07:11:39.715Z,1000.98
2017-03-03T07:12:39.751Z,1001.05
2017-03-03T07:13:39.786Z,1000.95
2017-03-03T07:14:39.822Z,1000.96
2017-03-03T07:15:39.858Z,1000.99
2017-03-03T07:16:39.892Z,1000.93
2017-03-03T07:17:39.927Z,1000.94
2017-03-03T07:18:39.961Z,1000.96
2017-03-03T07:19:40.000Z,1000.97
2017-03-03T07:20:40.035Z,1001.01
2017-03-03T07:21:40.069Z,1001.02
2017-03-03T07:22:40.108Z,1000.97
2017-03-03T07:23:40.144Z,1000.93
2017-03-03T07:24:40.182Z,1000.94
2017-03-03T07:25:40.219Z,1000.98
2017-03-03T07:26:40.255Z,1000.95
2017-03-03T07:27:40.291Z,1000.91
2017-03-03T07:28:40.328Z,1000.95
2017-03-03T07:29:40.365Z,1000.95
2017-03-03T07:30:40.403Z,1000.85
2017-03-03T07:31:40.442Z,1000.9
2017-03-03T07:32:40.479Z,1000.83
2017-03-03T07:33:40.517Z,1000.79
2017-03-03T07:34:40.555Z,1000.81
2017-03-03T07:35:40.594Z,1000.78
2017-03-03T07:36:40.631Z,1000.79
2017-03-03T07:37:40.687Z,1000.76
2017-03-03T07:38:40.705Z,1000.85
2017-03-03T07:39:40.748Z,1000.77
2017-03-03T07:40:40.780Z,1000.74
2017-03-03T07:41:40.825Z,1000.72
2017-03-03T07:42:40.859Z,1000.75
2017-03-03T07:43:40.899Z,1000.71
2017-03-03T07:44:40.932Z,1000.76
2017-03-03T07:45:40.971Z,1000.79
2017-03-03T07:46:41.008Z,1000.79
2017-03-03T07:47:41.046Z,1000.8
2017-03-03T07:48:41.085Z,1000.82
2017-03-03T07:49:41.125Z,1000.78
2017-03-03T07:50:41.164Z,1000.85
2017-03-03T07:51:41.204Z,1000.91
2017-03-03T07:52:41.239Z,1000.84
2017-03-03T07:53:41.282Z,1000.86
2017-03-03T07:54:41.319Z,1000.9
2017-03-03T07:55:41.357Z,1000.9
2017-03-03T07:56:41.397Z,1000.88
2017-03-03T07:57:41.438Z,1000.91
2017-03-03T07:58:41.479Z,1000.85
2017-03-03T07:59:41.517Z,1000.89
2017-03-03T08:00:41.558Z,1000.91
2017-03-03T08:01:41.598Z,1000.9
2017-03-03T08:02:41.638Z,1000.87
2017-03-03T08:03:41.679Z,1000.89
2017-03-03T08:04:41.717Z,1000.89
2017-03-03T08:05:41.758Z,1000.88
2017-03-03T08:06:41.797Z,1000.87
2017-03-03T08:07:41.839Z,1000.86
2017-03-03T08:08:41.880Z,1000.77
2017-03-03T08:09:41.916Z,1000.87
2017-03-03T08:10:41.957Z,1000.8
2017-03-03T08:11:41.996Z,1000.8
2017-03-03T08:12:42.059Z,1000.77
2017-03-03T08:13:42.076Z,1000.76
2017-03-03T08:14:42.117Z,1000.71
2017-03-03T08:15:42.159Z,1000.66
2017-03-03T08:16:42.193Z,1000.66
2017-03-03T08:17:42.232Z,1000.61
2017-03-03T08:18:42.274Z,1000.62
2017-03-03T08:19:42.352Z,1000.58
2017-03-03T08:20:42.352Z,1000.59
2017-03-03T08:21:42.392Z,1000.57
2017-03-03T08:22:42.446Z,1000.6
2017-03-03T08:23:42.467Z,1000.61
2017-03-03T08:24:42.508Z,1000.57
2017-03-03T08:25:42.547Z,1000.53
2017-03-03T08:26:42.586Z,1000.54
2017-03-03T08:27:42.624Z,1000.52
2017-03-03T08:28:42.661Z,1000.49
2017-03-03T08:29:42.702Z,1000.51
2017-03-03T08:30:42.738Z,1000.53
2017-03-03T08:31:42.777Z,1000.5
2017-03-03T08:32:42.816Z,1000.51
2017-03-03T08:33:42.863Z,1000.46
2017-03-03T08:34:42.892Z,1000.48
2017-03-03T08:35:42.930Z,1000.49
2017-03-03T08:36:42.969Z,1000.5
2017-03-03T08:37:43.008Z,1000.45
2017-03-03T08:38:43.044Z,1000.42
2017-03-03T08:39:43.082Z,1000.42
2017-03-03T08:40:43.121Z,1000.39
2017-03-03T08:41:43.160Z,1000.38
2017-03-03T08:42:43.196Z,1000.37
2017-03-03T08:43:43.236Z,1000.34
2017-03-03T08:44:43.275Z,1000.38
2017-03-03T08:45:43.312Z,1000.37
2017-03-03T08:46:43.348Z,1000.35
2017-03-03T08:47:43.385Z,1000.36
2017-03-03T08:48:43.423Z,1000.37
2017-03-03T08:49:43.460Z,1000.35
2017-03-03T08:50:43.498Z,1000.4
2017-03-03T08:51:43.536Z,1000.35
2017-03-03T08:52:43.574Z,1000.33
2017-03-03T08:53:43.612Z,1000.27
2017-03-03T08:54:43.648Z,1000.21
2017-03-03T08:55:43.685Z,1000.2
2017-03-03T08:56:43.724Z,1000.24
2017-03-03T08:57:43.763Z,1000.19
2017-03-03T08:58:43.800Z,1000.21
2017-03-03T08:59:43.838Z,1000.22
2017-03-03T09:00:43.875Z,1000.22
2017-03-03T09:01:43.923Z,1000.17
2017-03-03T09:02:43.952Z,1000.26
2017-03-03T09:03:43.990Z,1000.2
2017-03-03T09:04:44.027Z,1000.3
2017-03-03T09:05:44.064Z,1000.25
2017-03-03T09:06:44.104Z,1000.25
2017-03-03T09:07:44.138Z,1000.26
2017-03-03T09:08:44.189Z,1000.27
2017-03-03T09:09:44.217Z,1000.21
2017-03-03T09:10:44.259Z,1000.19
2017-03-03T09:11:44.296Z,1000.13
2017-03-03T09:12:44.335Z,1000.15
2017-03-03T09:13:44.380Z,1000.11
2017-03-03T09:14:44.420Z,1000.1
2017-03-03T09:15:44.462Z,1000.07
2017-03-03T09:16:44.527Z,1000.1
2017-03-03T09:17:44.543Z,1000.1
2017-03-03T09:18:44.591Z,1000.06
2017-03-03T09:19:44.628Z,1000.05
2017-03-03T09:20:44.693Z,1000.04
2017-03-03T09:21:44.718Z,1000.01
2017-03-03T09:22:44.761Z,999.95
2017-03-03T09:23:44.808Z,999.99
2017-03-03T09:24:44.850Z,999.92
2017-03-03T09:25:44.897Z,999.96
2017-03-03T09:26:44.939Z,999.96
2017-03-03T09:27:44.986Z,999.98
2017-03-03T09:28:45.034Z,999.96
2017-03-03T09:29:45.079Z,999.98
2017-03-03T09:30:45.123Z,999.95
2017-03-03T09:31:45.171Z,999.89
2017-03-03T09:32:45.219Z,999.91
2017-03-03T09:33:45.264Z,999.83
2017-03-03T09:34:45.311Z,999.93
2017-03-03T09:35:45.356Z,999.87
2017-03-03T09:36:45.406Z,999.94
2017-03-03T09:37:45.451Z,999.99
2017-03-03T09:38:45.498Z,1000.09
2017-03-03T09:39:45.548Z,1000.11
2017-03-03T09:40:45.592Z,1000.06
2017-03-03T09:41:45.640Z,999.94
2017-03-03T09:42:45.689Z,999.91
2017-03-03T09:43:45.738Z,999.87
2017-03-03T09:44:45.784Z,999.85
2017-03-03T09:45:45.831Z,999.73
2017-03-03T09:46:45.879Z,999.74
2017-03-03T09:47:45.926Z,999.76
2017-03-03T09:48:46.112Z,999.71
2017-03-03T09:49:46.021Z,999.67
2017-03-03T09:50:46.068Z,999.67
2017-03-03T09:51:46.167Z,999.62
2017-03-03T09:52:46.163Z,999.59
2017-03-03T09:53:46.212Z,999.56
2017-03-03T09:54:46.263Z,999.5
2017-03-03T09:55:46.308Z,999.5
2017-03-03T09:56:46.357Z,999.53
2017-03-03T09:57:46.407Z,999.46
2017-03-03T09:58:46.454Z,999.44
2017-03-03T09:59:46.500Z,999.33
2017-03-03T10:00:46.552Z,999.33
2017-03-03T10:01:46.599Z,999.28
2017-03-03T10:02:46.646Z,999.31
2017-03-03T10:03:46.698Z,999.33
2017-03-03T10:04:46.747Z,999.32
2017-03-03T10:05:46.793Z,999.22
2017-03-03T10:06:46.881Z,999.22
2017-03-03T10:07:46.895Z,999.2
2017-03-03T10:08:46.941Z,999.27
2017-03-03T10:09:46.989Z,999.27
2017-03-03T10:10:47.041Z,999.28
2017-03-03T10:11:47.091Z,999.31
2017-03-03T10:12:47.140Z,999.29
2017-03-03T10:13:47.187Z,999.28
2017-03-03T10:14:47.238Z,999.26
2017-03-03T10:15:47.289Z,999.24
2017-03-03T10:16:47.338Z,999.2
2017-03-03T10:17:47.387Z,999.17
2017-03-03T10:18:47.437Z,999.13
2017-03-03T10:19:47.486Z,999.12
2017-03-03T10:20:47.540Z,999.06
2017-03-03T10:21:47.738Z,999.12
2017-03-03T10:22:47.637Z,999.12
2017-03-03T10:23:47.687Z,999.09
2017-03-03T10:24:47.737Z,999.07
2017-03-03T10:25:47.805Z,999.11
2017-03-03T10:26:47.840Z,999.04
2017-03-03T10:27:47.890Z,999.04
2017-03-03T10:28:47.939Z,999.07
2017-03-03T10:29:47.990Z,999.06
2017-03-03T10:30:48.040Z,999.07
2017-03-03T10:31:48.091Z,998.99
2017-03-03T10:32:48.142Z,999
2017-03-03T10:33:48.193Z,999
2017-03-03T10:34:48.242Z,999.05
2017-03-03T10:35:48.295Z,999.07
2017-03-03T10:36:48.346Z,999.04
2017-03-03T10:37:48.397Z,999.04
2017-03-03T10:38:48.447Z,999.01
2017-03-03T10:39:48.496Z,999.08
2017-03-03T10:40:48.548Z,998.99
2017-03-03T10:41:48.598Z,999.01
2017-03-03T10:42:48.647Z,998.89
2017-03-03T10:43:48.703Z,998.92
2017-03-03T10:44:48.749Z,998.89
2017-03-03T10:45:48.801Z,998.85
2017-03-03T10:46:48.882Z,998.84
2017-03-03T10:47:48.899Z,998.82
2017-03-03T10:48:48.949Z,998.85
2017-03-03T10:49:49.001Z,998.82
2017-03-03T10:50:49.051Z,998.83
2017-03-03T10:51:49.100Z,998.78
2017-03-03T10:52:49.154Z,998.8
2017-03-03T10:53:49.203Z,998.77
2017-03-03T10:54:49.326Z,998.75
2017-03-03T10:55:49.304Z,998.78
2017-03-03T10:56:49.356Z,998.8
2017-03-03T10:57:49.404Z,998.8
2017-03-03T10:58:49.457Z,998.79
2017-03-03T10:59:49.509Z,998.81
2017-03-03T11:00:49.581Z,998.75
2017-03-03T11:01:49.608Z,998.78
2017-03-03T11:02:49.659Z,998.67
2017-03-03T11:03:49.710Z,998.72
2017-03-03T11:04:49.764Z,998.64
2017-03-03T11:05:49.816Z,998.62
2017-03-03T11:06:49.885Z,998.57
2017-03-03T11:07:49.915Z,998.58
2017-03-03T11:08:49.964Z,998.54
2017-03-03T11:09:50.016Z,998.54
2017-03-03T11:10:50.066Z,998.53
2017-03-03T11:11:50.117Z,998.48
2017-03-03T11:12:50.166Z,998.51
2017-03-03T11:13:50.214Z,998.43
2017-03-03T11:14:50.264Z,998.38
2017-03-03T11:15:50.315Z,998.4
2017-03-03T11:16:50.365Z,998.37
2017-03-03T11:17:50.434Z,998.36
2017-03-03T11:18:50.463Z,998.38
2017-03-03T11:19:50.511Z,998.39
2017-03-03T11:20:50.562Z,998.38
2017-03-03T11:21:50.610Z,998.37
2017-03-03T11:22:50.657Z,998.36
2017-03-03T11:23:50.705Z,998.35
2017-03-03T11:24:50.768Z,998.35
2017-03-03T11:25:50.801Z,998.35
2017-03-03T11:26:50.852Z,998.3
2017-03-03T11:27:50.898Z,998.24
2017-03-03T11:28:50.952Z,998.18
2017-03-03T11:29:50.994Z,998.18
2017-03-03T11:30:51.041Z,998.14
2017-03-03T11:31:51.090Z,998.19
2017-03-03T11:32:51.138Z,998.18
2017-03-03T11:33:51.183Z,998.11
2017-03-03T11:34:51.229Z,998.17
2017-03-03T11:35:51.279Z,998.12
2017-03-03T11:36:51.325Z,998.11
2017-03-03T11:37:51.370Z,998.08
2017-03-03T11:38:51.417Z,998.02
2017-03-03T11:39:51.465Z,998.02
2017-03-03T11:40:51.511Z,997.96
2017-03-03T11:41:51.557Z,998.01
2017-03-03T11:42:51.613Z,997.99
2017-03-03T11:43:51.649Z,997.89
2017-03-03T11:44:51.696Z,997.94
2017-03-03T11:45:51.742Z,997.89
2017-03-03T11:46:51.787Z,997.89
2017-03-03T11:47:51.838Z,997.77
2017-03-03T11:48:51.876Z,997.78
2017-03-03T11:49:51.923Z,997.83
2017-03-03T11:50:51.967Z,997.8
2017-03-03T11:51:52.014Z,997.69
2017-03-03T11:52:52.057Z,997.68
2017-03-03T11:53:52.102Z,997.58
2017-03-03T11:54:52.147Z,997.47
2017-03-03T11:55:52.191Z,997.48
2017-03-03T11:56:52.234Z,997.54
2017-03-03T11:57:52.278Z,997.44
2017-03-03T11:58:52.326Z,997.34
2017-03-03T11:59:52.369Z,997.3
2017-03-03T12:00:52.410Z,997.28
2017-03-03T12:01:52.455Z,997.26
2017-03-03T12:02:52.498Z,997.26
2017-03-03T12:03:52.546Z,997.26
2017-03-03T12:04:52.587Z,997.27
2017-03-03T12:05:52.629Z,997.21
2017-03-03T12:06:52.672Z,997.16
2017-03-03T12:07:52.717Z,997.15
2017-03-03T12:08:52.759Z,997.16
2017-03-03T12:09:52.802Z,997.19
2017-03-03T12:10:52.845Z,997.16
2017-03-03T12:11:52.889Z,997.09
2017-03-03T12:12:52.931Z,997.12
2017-03-03T12:13:52.976Z,997.16
2017-03-03T12:14:53.015Z,997.16